Airfield :
LOGIN :

Register | Disclaimer

   EN    FR    IT 

 










Legend :    VFR   Marginal VFR   IFR   Intensive IFR   Very Intensive IFR
Visi :
Ceiling :
>= 8 km
>= 3000ft
5 to 8 km
1000 to 3000 ft
1500m to 5 km
500 to 1000 ft
800 to 1500m
200 to 500 ft
< 800m
< 200 ft
Symbols :   Thunderstorms  Fog  Heavy snow  Heavy precipitations  Wind > 20 kt
SIGMETs :     Misc.  Thunderstorms  Icing  Turbulence  Mountain Waves  Volcanic Ashes







- Airport Elevation : 995 ft
- IATA code : KTW


EPKT - Katowice

CURRENT METAR :
  • 181800Z 34003KT 1000 0900N R27/0800U BCFG BR SCT008 BKN045 M05/M05 Q1026

EXPIRED METARs :
  • 181730Z VRB01KT 2600 0800N R27/0800U BCFG BR NSC M04/M04 Q1025
  • 181700Z 32002KT 1700 0900NE BCFG BR SCT007 M03/M04 Q1025
  • 181630Z 01001KT 3700 BR NSC M03/M04 Q1025
  • 181600Z 33002KT 6000 NSC M02/M03 Q1025

TAF TAF EPKT
Valid from the 18 at 18:00 until the 19 at 18:00 UTC


181730Z 1818/1918 33004KT 1500 BR SCT007
TEMPO 1818/1824 0200 FZFG BKN002
BECMG 1900/1902 3000 BR BKN004
BECMG 1905/1907 7000 BKN007
BECMG 1909/1911 BKN020
BECMG 1914/1916 2000 BR BKN007
No reported NOTAMs for that airfield.



MET'MAP, your aeronautical weather chart ! - Copyright ORBIFLY December 2007 - Disclaimer

ORBIFLY MET'MAP TEAM :

Programming & Development : Alexandra Zaïnal
Concept & Development : Baudouin d'Aumeries
Co-Development & Prog : Marc-Olivier Méhu
Technical & hardware support : Manuel Goepfert

Contact : metmap@orbifly.com




SOURCES & CREDITS :

   NOAA